Time;durP1;ratioP1;P1;durP2;ratioP2;P2;SDS_P1;SDS_P2;PMS_P1;PMS_P2;Temp;Humidity;BMP_temperature;BMP_pressure;BME280_temperature;BME280_humidity;BME280_pressure;Samples;Min_cycle;Max_cycle;Signal;HPM_P1;HPM_P2
2024/02/16 00:02:02;;;;;;;;;;;;;;;7.19;100.00;96976.37;107853;1289;22517;-87
2024/02/16 00:04:28;;;;;;;;;;;;;;;7.17;100.00;96979.16;108051;1283;22563;-86
2024/02/16 00:06:55;;;;;;;;;;;;;;;7.14;100.00;96981.80;107953;1288;23642;-86
2024/02/16 00:09:21;;;;;;;;;;;;;;;7.14;100.00;96979.94;107968;1287;22579;-87
2024/02/16 00:11:50;;;;;;;;;;;;;;;7.17;100.00;96976.28;107919;1289;22554;-86
2024/02/16 00:14:16;;;;;;;;;;;;;;;7.19;100.00;96976.17;108091;1289;22575;-86
2024/02/16 00:16:43;;;;;;;;;;;;;;;7.22;100.00;96972.52;108083;1283;22525;-87
2024/02/16 00:19:09;;;;;;;;;;;;;;;7.25;100.00;96973.60;108064;1288;22511;-87
2024/02/16 00:21:36;;;;;;;;;;;;;;;7.26;100.00;96971.31;107961;1283;22532;-86
2024/02/16 00:24:02;;;;;;;;;;;;;;;7.24;100.00;96973.53;107946;1289;22581;-86
2024/02/16 00:26:29;;;;;;;;;;;;;;;7.13;100.00;96973.05;107963;1289;22533;-86
2024/02/16 00:28:55;;;;;;;;;;;;;;;7.02;100.00;96973.20;108071;1289;22548;-86
2024/02/16 00:31:22;;;;;;;;;;;;;;;6.97;100.00;96969.70;107956;1283;23347;-86
2024/02/16 00:33:48;;;;;;;;;;;;;;;7.01;100.00;96961.96;108056;1287;22517;-86
2024/02/16 00:36:14;;;;;;;;;;;;;;;7.01;100.00;96959.67;108077;1286;22504;-87
2024/02/16 00:38:41;;;;;;;;;;;;;;;7.06;100.00;96957.84;108057;1289;22522;-86
2024/02/16 00:41:08;;;;;;;;;;;;;;;7.09;100.00;96954.12;108024;1289;22517;-86
2024/02/16 00:43:34;;;;;;;;;;;;;;;7.11;100.00;96952.30;108004;1289;22525;-87
2024/02/16 00:46:02;;;;;;;;;;;;;;;7.14;100.00;96944.63;107954;1286;22550;-86
2024/02/16 00:48:31;;;;;;;;;;;;;;;7.16;100.00;96946.36;108017;1288;23864;-86
2024/02/16 00:50:58;;;;;;;;;;;;;;;7.15;100.00;96946.95;108096;1287;25234;-86
2024/02/16 00:53:24;;;;;;;;;;;;;;;7.12;100.00;96948.40;108080;1287;23115;-86
2024/02/16 00:55:51;;;;;;;;;;;;;;;7.05;100.00;96946.04;108092;1287;25336;-86
2024/02/16 00:58:19;;;;;;;;;;;;;;;7.02;100.00;96946.17;108102;1287;22538;-87
2024/02/16 01:00:46;;;;;;;;;;;;;;;7.05;100.00;96943.61;108124;1287;25284;-87
2024/02/16 01:03:12;;;;;;;;;;;;;;;7.12;100.00;96944.70;107961;1289;25417;-86
2024/02/16 01:05:40;;;;;;;;;;;;;;;7.19;100.00;96942.13;108019;1287;22524;-86
2024/02/16 01:08:06;;;;;;;;;;;;;;;7.27;100.00;96940.50;108008;1288;22515;-86
2024/02/16 01:10:33;;;;;;;;;;;;;;;7.36;100.00;96940.09;108035;1280;22544;-86
2024/02/16 01:12:59;;;;;;;;;;;;;;;7.43;100.00;96941.13;108012;1283;22537;-87
2024/02/16 01:15:26;;;;;;;;;;;;;;;7.48;100.00;96943.44;108121;1286;22558;-86
2024/02/16 01:17:53;;;;;;;;;;;;;;;7.50;100.00;96942.54;107887;1288;22520;-87
2024/02/16 01:20:20;;;;;;;;;;;;;;;7.51;100.00;96940.87;108072;1287;22514;-86
2024/02/16 01:22:46;;;;;;;;;;;;;;;7.57;100.00;96936.38;108019;1289;23144;-87
2024/02/16 01:25:13;;;;;;;;;;;;;;;7.65;100.00;96932.69;108126;1287;23046;-86
2024/02/16 01:27:40;;;;;;;;;;;;;;;7.70;100.00;96936.58;108112;1286;22586;-86
2024/02/16 01:30:07;;;;;;;;;;;;;;;7.76;100.00;96938.30;108079;1286;22529;-86
2024/02/16 01:32:34;;;;;;;;;;;;;;;7.79;100.00;96936.92;108056;1287;22515;-86
2024/02/16 01:35:01;;;;;;;;;;;;;;;7.84;100.00;96935.65;108154;1287;22803;-86
2024/02/16 01:37:27;;;;;;;;;;;;;;;7.85;100.00;96932.23;108053;1289;22529;-87
2024/02/16 01:39:54;;;;;;;;;;;;;;;7.84;100.00;96930.96;108064;1287;22534;-86
2024/02/16 01:42:20;;;;;;;;;;;;;;;7.80;100.00;96929.44;107982;1281;22561;-86
2024/02/16 01:44:48;;;;;;;;;;;;;;;7.79;100.00;96924.18;108045;1287;24891;-86
2024/02/16 01:47:18;;;;;;;;;;;;;;;7.78;100.00;96929.13;108044;1289;22900;-87
2024/02/16 01:49:45;;;;;;;;;;;;;;;7.77;100.00;96925.56;108097;1288;22551;-87
2024/02/16 01:52:11;;;;;;;;;;;;;;;7.78;100.00;96918.61;107938;1288;22591;-87
2024/02/16 01:54:38;;;;;;;;;;;;;;;7.81;100.00;96916.26;108110;1287;22519;-86
2024/02/16 01:57:05;;;;;;;;;;;;;;;7.81;100.00;96914.19;107962;1289;24088;-86
2024/02/16 01:59:33;;;;;;;;;;;;;;;7.78;100.00;96913.35;107995;1285;22522;-87
2024/02/16 02:01:59;;;;;;;;;;;;;;;7.75;100.00;96909.77;108004;1283;25237;-86
2024/02/16 02:04:26;;;;;;;;;;;;;;;7.77;100.00;96910.07;108000;1289;22515;-87
2024/02/16 02:06:52;;;;;;;;;;;;;;;7.81;100.00;96905.90;107998;1288;22531;-87
2024/02/16 02:09:19;;;;;;;;;;;;;;;7.80;99.99;96905.09;108118;1289;22515;-87
2024/02/16 02:11:45;;;;;;;;;;;;;;;7.82;99.96;96903.08;108185;1287;22534;-86
2024/02/16 02:14:12;;;;;;;;;;;;;;;7.84;99.92;96902.54;107991;1289;22513;-86
2024/02/16 02:16:38;;;;;;;;;;;;;;;7.80;99.51;96904.46;107968;1287;22544;-87
2024/02/16 02:19:05;;;;;;;;;;;;;;;7.76;99.50;96904.48;108067;1286;22550;-86
2024/02/16 02:21:31;;;;;;;;;;;;;;;7.70;99.20;96898.46;107969;1287;25279;-86
2024/02/16 02:23:58;;;;;;;;;;;;;;;7.66;99.12;96899.47;107975;1270;23301;-86
2024/02/16 02:26:24;;;;;;;;;;;;;;;7.60;98.91;96890.78;107984;1287;22746;-87
2024/02/16 02:28:51;;;;;;;;;;;;;;;7.61;99.21;96890.30;107980;1282;22518;-86
2024/02/16 02:31:17;;;;;;;;;;;;;;;7.61;99.05;96890.08;107977;1287;22604;-85
2024/02/16 02:33:44;;;;;;;;;;;;;;;7.64;99.08;96888.90;107962;1288;22534;-86
2024/02/16 02:36:10;;;;;;;;;;;;;;;7.68;99.03;96886.98;107962;1288;22518;-87
2024/02/16 02:38:37;;;;;;;;;;;;;;;7.73;98.82;96890.14;107965;1288;23107;-86
2024/02/16 02:41:04;;;;;;;;;;;;;;;7.72;98.60;96889.33;107961;1283;22544;-86
2024/02/16 02:43:30;;;;;;;;;;;;;;;7.73;98.60;96888.71;107984;1286;22756;-86
2024/02/16 02:45:58;;;;;;;;;;;;;;;7.76;98.64;96887.92;108038;1286;25279;-87
2024/02/16 02:48:25;;;;;;;;;;;;;;;7.77;98.40;96885.39;107924;1283;22538;-86
2024/02/16 02:50:52;;;;;;;;;;;;;;;7.79;98.17;96885.67;108005;1288;22528;-87
2024/02/16 02:53:18;;;;;;;;;;;;;;;7.81;98.05;96889.10;108166;1287;24377;-86
2024/02/16 02:55:45;;;;;;;;;;;;;;;7.79;97.76;96886.77;108128;1281;22522;-87
2024/02/16 02:58:11;;;;;;;;;;;;;;;7.75;97.77;96888.89;108124;1287;22508;-86
2024/02/16 03:00:37;;;;;;;;;;;;;;;7.78;97.88;96889.09;108051;1287;22578;-86
2024/02/16 03:03:04;;;;;;;;;;;;;;;7.74;97.72;96887.09;108049;1287;22533;-87
2024/02/16 03:05:31;;;;;;;;;;;;;;;7.65;97.54;96887.14;108115;1287;22520;-86
2024/02/16 03:07:58;;;;;;;;;;;;;;;7.60;97.64;96893.02;108071;1283;23342;-87
2024/02/16 03:10:25;;;;;;;;;;;;;;;7.57;97.76;96892.58;107990;1287;22644;-86
2024/02/16 03:12:52;;;;;;;;;;;;;;;7.62;98.01;96896.20;108018;1287;22546;-86
2024/02/16 03:15:18;;;;;;;;;;;;;;;7.62;97.86;96893.15;108010;1287;22555;-87
2024/02/16 03:17:44;;;;;;;;;;;;;;;7.61;97.79;96895.09;107997;1287;23878;-86
2024/02/16 03:20:11;;;;;;;;;;;;;;;7.67;97.99;96900.04;107970;1283;22553;-86
2024/02/16 03:22:37;;;;;;;;;;;;;;;7.67;97.47;96898.90;107978;1286;22575;-86
2024/02/16 03:25:05;;;;;;;;;;;;;;;7.62;97.40;96902.40;108013;1288;22628;-87
2024/02/16 03:27:31;;;;;;;;;;;;;;;7.57;97.24;96897.45;108008;1283;25267;-87
2024/02/16 03:29:57;;;;;;;;;;;;;;;7.50;97.38;96904.23;108032;1282;23281;-87
2024/02/16 03:32:24;;;;;;;;;;;;;;;7.46;97.48;96900.16;108057;1283;24972;-87
2024/02/16 03:34:50;;;;;;;;;;;;;;;7.42;97.73;96895.42;107979;1288;22531;-86
2024/02/16 03:37:17;;;;;;;;;;;;;;;7.48;98.37;96893.24;108006;1289;22522;-87
2024/02/16 03:39:43;;;;;;;;;;;;;;;7.59;98.46;96893.80;108110;1285;23275;-87
2024/02/16 03:42:10;;;;;;;;;;;;;;;7.64;98.48;96891.07;108009;1289;22522;-86
2024/02/16 03:44:37;;;;;;;;;;;;;;;7.68;98.26;96894.27;107993;1286;22518;-86
2024/02/16 03:47:05;;;;;;;;;;;;;;;7.67;98.02;96894.02;108042;1288;22556;-86
2024/02/16 03:49:32;;;;;;;;;;;;;;;7.68;98.11;96894.05;109567;1287;22420;-87
2024/02/16 03:51:58;;;;;;;;;;;;;;;7.67;98.07;96892.24;108970;1286;22513;-87
2024/02/16 03:54:25;;;;;;;;;;;;;;;7.70;98.06;96889.60;108016;1286;24378;-86
2024/02/16 03:56:54;;;;;;;;;;;;;;;7.68;97.65;96892.86;107953;1288;23609;-86
2024/02/16 03:59:21;;;;;;;;;;;;;;;7.68;97.93;96891.17;108034;1287;22515;-87
2024/02/16 04:01:47;;;;;;;;;;;;;;;7.71;97.94;96892.61;108045;1287;23453;-86
2024/02/16 04:04:14;;;;;;;;;;;;;;;7.77;98.05;96890.70;108082;1281;22546;-87
2024/02/16 04:06:41;;;;;;;;;;;;;;;7.79;97.64;96891.88;107973;1288;23112;-86
2024/02/16 04:09:08;;;;;;;;;;;;;;;7.81;97.56;96894.95;108023;1287;22544;-86
2024/02/16 04:11:35;;;;;;;;;;;;;;;7.86;97.58;96892.98;107978;1288;24373;-87
2024/02/16 04:14:01;;;;;;;;;;;;;;;7.88;97.47;96895.21;107946;1286;23372;-86
2024/02/16 04:16:28;;;;;;;;;;;;;;;7.88;97.55;96891.56;108008;1288;22530;-87
2024/02/16 04:18:55;;;;;;;;;;;;;;;7.89;97.37;96890.63;108062;1284;24339;-87
2024/02/16 04:21:21;;;;;;;;;;;;;;;7.92;97.28;96892.55;108014;1288;22579;-86
2024/02/16 04:23:48;;;;;;;;;;;;;;;7.95;97.21;96892.98;108182;1287;22528;-86
2024/02/16 04:26:14;;;;;;;;;;;;;;;7.93;96.80;96891.10;108055;1284;25350;-87
2024/02/16 04:28:41;;;;;;;;;;;;;;;7.92;96.81;96891.70;108000;1287;22557;-86
2024/02/16 04:31:07;;;;;;;;;;;;;;;7.90;96.49;96891.16;107965;1288;22529;-87
2024/02/16 04:33:34;;;;;;;;;;;;;;;7.89;96.48;96893.60;108082;1287;22553;-87
2024/02/16 04:36:00;;;;;;;;;;;;;;;7.92;96.36;96892.74;108028;1288;22584;-87
2024/02/16 04:38:26;;;;;;;;;;;;;;;7.86;96.13;96891.64;108082;1287;22600;-87
2024/02/16 04:40:53;;;;;;;;;;;;;;;7.88;96.28;96892.95;108070;1288;22512;-87
2024/02/16 04:43:19;;;;;;;;;;;;;;;7.96;96.44;96894.55;107996;1289;23145;-87
2024/02/16 04:45:46;;;;;;;;;;;;;;;7.97;96.24;96896.73;108138;1287;22535;-85
2024/02/16 04:48:13;;;;;;;;;;;;;;;7.99;96.07;96892.24;107947;1286;23346;-86
2024/02/16 04:50:39;;;;;;;;;;;;;;;8.01;95.89;96894.95;108087;1283;24382;-86
2024/02/16 04:53:06;;;;;;;;;;;;;;;8.03;95.78;96890.98;108103;1281;22587;-86
2024/02/16 04:55:33;;;;;;;;;;;;;;;8.04;95.64;96890.65;107984;1282;22536;-87
2024/02/16 04:58:00;;;;;;;;;;;;;;;8.08;95.89;96888.73;108109;1285;23219;-86
2024/02/16 05:00:27;;;;;;;;;;;;;;;8.07;95.56;96892.09;107974;1286;24345;-87
2024/02/16 05:02:53;;;;;;;;;;;;;;;8.06;95.44;96885.65;107951;1288;22532;-87
2024/02/16 05:05:20;;;;;;;;;;;;;;;8.09;95.55;96889.05;108038;1283;22516;-86
2024/02/16 05:07:49;;;;;;;;;;;;;;;8.11;95.30;96892.84;108071;1283;22521;-87
2024/02/16 05:10:16;;;;;;;;;;;;;;;8.09;95.10;96891.80;108031;1287;23212;-86
2024/02/16 05:12:43;;;;;;;;;;;;;;;8.05;94.82;96888.52;108020;1288;22525;-86
2024/02/16 05:15:09;;;;;;;;;;;;;;;7.96;94.86;96887.78;108069;1287;22529;-86
2024/02/16 05:17:36;;;;;;;;;;;;;;;7.95;94.91;96893.85;108017;1289;22525;-87
2024/02/16 05:20:03;;;;;;;;;;;;;;;7.91;94.78;96898.98;108032;1287;23282;-86
2024/02/16 05:22:29;;;;;;;;;;;;;;;7.89;94.79;96898.54;108124;1288;25316;-86
2024/02/16 05:24:56;;;;;;;;;;;;;;;7.86;94.74;96891.61;108117;1287;22514;-86
2024/02/16 05:27:22;;;;;;;;;;;;;;;7.83;94.81;96895.48;108135;1273;22558;-87
2024/02/16 05:29:50;;;;;;;;;;;;;;;7.79;94.53;96890.52;108032;1287;22518;-87
2024/02/16 05:32:16;;;;;;;;;;;;;;;7.73;94.47;96891.66;108104;1288;22559;-87
2024/02/16 05:34:43;;;;;;;;;;;;;;;7.68;94.58;96889.20;108053;1281;25279;-87
2024/02/16 05:37:09;;;;;;;;;;;;;;;7.62;94.60;96891.77;108014;1283;24128;-87
2024/02/16 05:39:43;;;;;;;;;;;;;;;7.59;94.70;96889.96;108032;1286;22547;-87
2024/02/16 05:42:09;;;;;;;;;;;;;;;7.61;94.82;96887.48;108044;1289;25290;-87
2024/02/16 05:44:37;;;;;;;;;;;;;;;7.63;94.88;96886.76;107972;1287;23326;-86
2024/02/16 05:47:04;;;;;;;;;;;;;;;7.65;94.80;96889.92;108057;1286;24348;-87
2024/02/16 05:49:35;;;;;;;;;;;;;;;7.61;94.62;96886.30;108021;1287;24308;-87
2024/02/16 05:52:17;;;;;;;;;;;;;;;7.53;94.55;96890.05;107994;1288;24409;-86
2024/02/16 05:54:44;;;;;;;;;;;;;;;7.52;94.77;96887.66;108072;1287;26693;-86
2024/02/16 05:57:10;;;;;;;;;;;;;;;7.48;94.83;96886.88;107988;1287;22524;-86
2024/02/16 05:59:37;;;;;;;;;;;;;;;7.52;95.04;96888.77;108170;1287;22518;-87
2024/02/16 06:02:05;;;;;;;;;;;;;;;7.57;94.90;96886.85;108046;1281;22520;-87
2024/02/16 06:04:31;;;;;;;;;;;;;;;7.58;94.72;96885.95;108157;1287;24311;-86
2024/02/16 06:06:58;;;;;;;;;;;;;;;7.59;94.79;96887.38;108042;1287;22768;-87
2024/02/16 06:09:25;;;;;;;;;;;;;;;7.54;94.55;96888.73;108000;1289;24827;-86
2024/02/16 06:11:52;;;;;;;;;;;;;;;7.51;94.50;96888.27;107995;1287;22518;-87
2024/02/16 06:14:19;;;;;;;;;;;;;;;7.61;94.70;96883.95;108012;1289;22514;-86
2024/02/16 06:16:46;;;;;;;;;;;;;;;7.68;94.36;96888.39;107980;1287;22553;-87
2024/02/16 06:19:12;;;;;;;;;;;;;;;7.73;94.33;96887.64;108033;1286;22515;-86
2024/02/16 06:21:38;;;;;;;;;;;;;;;7.76;94.04;96893.06;107999;1287;22518;-86
2024/02/16 06:24:05;;;;;;;;;;;;;;;7.80;93.90;96893.41;107999;1284;22858;-86
2024/02/16 06:26:31;;;;;;;;;;;;;;;7.82;93.62;96895.58;107998;1281;22559;-87
2024/02/16 06:28:58;;;;;;;;;;;;;;;7.92;93.77;96898.47;107976;1286;22659;-86
2024/02/16 06:31:24;;;;;;;;;;;;;;;7.98;93.38;96899.20;108083;1281;24277;-86
2024/02/16 06:33:50;;;;;;;;;;;;;;;8.06;93.16;96896.35;108033;1288;25214;-86
2024/02/16 06:36:17;;;;;;;;;;;;;;;8.10;92.84;96897.31;107978;1287;22515;-86
2024/02/16 06:38:44;;;;;;;;;;;;;;;8.11;92.53;96896.83;107953;1287;24341;-86
2024/02/16 06:41:12;;;;;;;;;;;;;;;8.07;92.50;96898.95;108001;1287;25380;-85
2024/02/16 06:43:38;;;;;;;;;;;;;;;8.05;92.33;96903.18;107925;1285;22535;-86
2024/02/16 06:46:09;;;;;;;;;;;;;;;8.05;92.54;96907.80;107930;1280;26404;-87
2024/02/16 06:48:35;;;;;;;;;;;;;;;8.05;92.25;96908.31;107922;1280;22647;-87
2024/02/16 06:51:01;;;;;;;;;;;;;;;8.08;92.01;96909.17;108033;1283;22565;-87
2024/02/16 06:53:28;;;;;;;;;;;;;;;8.16;92.14;96911.57;108036;1288;22660;-86
2024/02/16 06:55:54;;;;;;;;;;;;;;;8.15;92.35;96911.14;108033;1289;24364;-87
2024/02/16 06:58:21;;;;;;;;;;;;;;;8.08;92.17;96916.06;107916;1283;22513;-87
2024/02/16 07:00:47;;;;;;;;;;;;;;;7.98;92.20;96914.52;107907;1289;23118;-86
2024/02/16 07:03:14;;;;;;;;;;;;;;;7.89;92.43;96917.34;107937;1286;22519;-86
2024/02/16 07:05:40;;;;;;;;;;;;;;;7.82;92.46;96912.34;108003;1286;22535;-86
2024/02/16 07:08:07;;;;;;;;;;;;;;;7.73;92.75;96914.80;107969;1284;22564;-87
2024/02/16 07:10:34;;;;;;;;;;;;;;;7.68;92.85;96914.23;107926;1285;24302;-87
2024/02/16 07:13:00;;;;;;;;;;;;;;;7.66;93.01;96914.96;107952;1283;24278;-86
2024/02/16 07:15:27;;;;;;;;;;;;;;;7.64;93.07;96915.48;107925;1289;22537;-86
2024/02/16 07:17:53;;;;;;;;;;;;;;;7.61;93.48;96917.55;108113;1289;22702;-86
2024/02/16 07:20:24;;;;;;;;;;;;;;;7.49;93.55;96917.77;107956;1289;22529;-87
2024/02/16 07:22:51;;;;;;;;;;;;;;;7.55;93.96;96920.00;107946;1289;22520;-86
2024/02/16 07:25:17;;;;;;;;;;;;;;;7.55;94.01;96925.88;107823;1283;22570;-87
2024/02/16 07:27:44;;;;;;;;;;;;;;;7.44;94.02;96927.27;108005;1289;22521;-86
2024/02/16 07:30:13;;;;;;;;;;;;;;;7.36;94.22;96932.27;107987;1289;22535;-87
2024/02/16 07:32:43;;;;;;;;;;;;;;;7.29;94.29;96931.14;107985;1270;22562;-86
2024/02/16 07:35:10;;;;;;;;;;;;;;;7.27;94.66;96930.02;107919;1283;23234;-86
2024/02/16 07:37:37;;;;;;;;;;;;;;;7.29;95.15;96930.63;107918;1289;25236;-86
2024/02/16 07:40:06;;;;;;;;;;;;;;;7.26;95.26;96934.90;108076;1283;22547;-86
2024/02/16 07:42:32;;;;;;;;;;;;;;;7.25;95.44;96933.30;107820;1289;22527;-86
2024/02/16 07:45:04;;;;;;;;;;;;;;;7.20;95.69;96931.98;107901;1287;22527;-87
2024/02/16 07:47:31;;;;;;;;;;;;;;;7.17;95.64;96935.38;107981;1283;23211;-86
2024/02/16 07:49:57;;;;;;;;;;;;;;;7.13;95.91;96934.58;107993;1283;25407;-86
2024/02/16 07:52:24;;;;;;;;;;;;;;;7.10;96.19;96937.79;108033;1287;22530;-86
2024/02/16 07:54:51;;;;;;;;;;;;;;;7.09;96.45;96940.62;108009;1287;22644;-87
2024/02/16 07:57:17;;;;;;;;;;;;;;;7.10;96.77;96938.10;107984;1287;23218;-86
2024/02/16 07:59:44;;;;;;;;;;;;;;;7.11;96.83;96938.21;107976;1280;25371;-86
2024/02/16 08:02:15;;;;;;;;;;;;;;;7.11;96.99;96938.21;107992;1287;22518;-87
2024/02/16 08:04:41;;;;;;;;;;;;;;;7.12;97.09;96943.67;107994;1279;22936;-87
2024/02/16 08:07:09;;;;;;;;;;;;;;;7.13;97.39;96945.78;108017;1284;24203;-87
2024/02/16 08:09:35;;;;;;;;;;;;;;;7.13;97.31;96944.39;108057;1288;22541;-87
2024/02/16 08:12:05;;;;;;;;;;;;;;;7.15;97.53;96939.04;108075;1286;22524;-87
2024/02/16 08:14:32;;;;;;;;;;;;;;;7.17;97.72;96942.00;108068;1283;24148;-86
2024/02/16 08:16:59;;;;;;;;;;;;;;;7.20;97.45;96944.61;108086;1281;24180;-86
2024/02/16 08:19:31;;;;;;;;;;;;;;;7.26;97.70;96944.04;108092;1283;22539;-87
2024/02/16 08:21:58;;;;;;;;;;;;;;;7.28;97.82;96943.70;108051;1283;23827;-87
2024/02/16 08:24:25;;;;;;;;;;;;;;;7.32;97.90;96947.60;108070;1283;23308;-87
2024/02/16 08:26:51;;;;;;;;;;;;;;;7.34;97.77;96948.14;108019;1281;23176;-87
2024/02/16 08:29:18;;;;;;;;;;;;;;;7.36;97.73;96944.45;108074;1288;22535;-87
2024/02/16 08:31:44;;;;;;;;;;;;;;;7.42;98.03;96946.75;108044;1287;23774;-87
2024/02/16 08:34:11;;;;;;;;;;;;;;;7.46;98.30;96941.89;108171;1285;22508;-86
2024/02/16 08:36:40;;;;;;;;;;;;;;;7.49;97.71;96943.30;108216;1287;22549;-86
2024/02/16 08:39:06;;;;;;;;;;;;;;;7.57;97.93;96942.25;108169;1287;22568;-86
2024/02/16 08:41:33;;;;;;;;;;;;;;;7.63;97.62;96947.35;108091;1287;22506;-87
2024/02/16 08:43:59;;;;;;;;;;;;;;;7.72;97.17;96946.59;108074;1286;22608;-86
2024/02/16 08:46:30;;;;;;;;;;;;;;;7.88;96.66;96945.41;108035;1283;26582;-86
2024/02/16 08:48:56;;;;;;;;;;;;;;;8.04;96.50;96938.66;108164;1287;22525;-86
2024/02/16 08:51:22;;;;;;;;;;;;;;;8.20;95.56;96934.81;108019;1287;23208;-87
2024/02/16 08:53:49;;;;;;;;;;;;;;;8.39;94.70;96932.67;108173;1274;26028;-87
2024/02/16 08:56:16;;;;;;;;;;;;;;;8.57;94.43;96932.34;108036;1287;25246;-87
2024/02/16 08:58:42;;;;;;;;;;;;;;;8.67;93.92;96929.02;108031;1288;22518;-87
2024/02/16 09:01:09;;;;;;;;;;;;;;;8.76;93.81;96931.35;108085;1281;23345;-87
2024/02/16 09:03:38;;;;;;;;;;;;;;;8.86;93.68;96930.21;108063;1288;22656;-87
2024/02/16 09:06:04;;;;;;;;;;;;;;;8.96;93.28;96929.59;108021;1287;22504;-87
2024/02/16 09:08:33;;;;;;;;;;;;;;;9.09;93.11;96926.96;108008;1283;22623;-87
2024/02/16 09:10:59;;;;;;;;;;;;;;;9.19;92.15;96927.58;108049;1283;22533;-87
2024/02/16 09:13:26;;;;;;;;;;;;;;;9.32;91.70;96927.61;108023;1286;22522;-87
2024/02/16 09:15:52;;;;;;;;;;;;;;;9.44;90.72;96929.13;108176;1280;25396;-87
2024/02/16 09:18:19;;;;;;;;;;;;;;;9.53;90.62;96928.32;108033;1283;22644;-87
2024/02/16 09:20:47;;;;;;;;;;;;;;;9.60;90.65;96925.86;107707;1270;384668;-87
2024/02/16 09:23:14;;;;;;;;;;;;;;;9.67;89.72;96918.60;108052;1286;22547;-87
2024/02/16 09:25:40;;;;;;;;;;;;;;;9.74;89.84;96920.89;107980;1288;22519;-87
2024/02/16 09:28:07;;;;;;;;;;;;;;;9.84;89.13;96918.85;108067;1277;24784;-87
2024/02/16 09:30:33;;;;;;;;;;;;;;;9.94;88.87;96917.57;108021;1283;22539;-87
2024/02/16 09:33:00;;;;;;;;;;;;;;;10.04;88.65;96923.06;108043;1286;22502;-87
2024/02/16 09:35:27;;;;;;;;;;;;;;;10.12;88.21;96926.77;108016;1288;22511;-86
2024/02/16 09:37:53;;;;;;;;;;;;;;;10.18;87.29;96929.73;108064;1287;22533;-87
2024/02/16 09:40:21;;;;;;;;;;;;;;;10.26;86.89;96933.35;108113;1289;22548;-87
2024/02/16 09:42:47;;;;;;;;;;;;;;;10.34;86.49;96931.68;108047;1280;22539;-87
2024/02/16 09:45:14;;;;;;;;;;;;;;;10.42;86.25;96936.14;108142;1280;22532;-87
2024/02/16 09:47:47;;;;;;;;;;;;;;;10.49;86.14;96936.89;108074;1287;25214;-87
2024/02/16 09:50:15;;;;;;;;;;;;;;;10.55;85.18;96940.89;108046;1282;24197;-87
2024/02/16 09:52:41;;;;;;;;;;;;;;;10.62;85.11;96942.25;108079;1287;22507;-87
2024/02/16 09:55:09;;;;;;;;;;;;;;;10.70;84.32;96945.55;108075;1283;24280;-87
2024/02/16 09:57:36;;;;;;;;;;;;;;;10.77;84.03;96943.17;108042;1281;22547;-87
2024/02/16 10:00:03;;;;;;;;;;;;;;;10.83;83.75;96946.95;108063;1279;22516;-86
2024/02/16 10:02:43;;;;;;;;;;;;;;;10.88;84.44;96947.23;108025;1281;22587;-87
2024/02/16 10:05:13;;;;;;;;;;;;;;;10.91;83.63;96947.39;108023;1281;22575;-87
2024/02/16 10:07:40;;;;;;;;;;;;;;;10.95;83.62;96954.00;108067;1281;24420;-87
2024/02/16 10:10:06;;;;;;;;;;;;;;;11.04;83.01;96951.73;108086;1288;25393;-87
2024/02/16 10:12:33;;;;;;;;;;;;;;;11.09;83.27;96950.23;108031;1287;22519;-87
2024/02/16 10:15:00;;;;;;;;;;;;;;;11.14;83.34;96946.00;108131;1285;22517;-87
2024/02/16 10:17:26;;;;;;;;;;;;;;;11.18;83.25;96940.05;108054;1281;22575;-87
2024/02/16 10:19:56;;;;;;;;;;;;;;;11.22;83.36;96940.95;108178;1276;22520;-87
2024/02/16 10:22:23;;;;;;;;;;;;;;;11.26;82.66;96943.44;108181;1284;22514;-87
2024/02/16 10:24:50;;;;;;;;;;;;;;;11.34;81.91;96941.32;108025;1287;22544;-87
2024/02/16 10:27:16;;;;;;;;;;;;;;;11.39;81.70;96939.05;108214;1287;22612;-87
2024/02/16 10:29:46;;;;;;;;;;;;;;;11.45;81.02;96937.97;108037;1287;22674;-87
2024/02/16 10:32:13;;;;;;;;;;;;;;;11.51;80.84;96934.73;108025;1287;22951;-87
2024/02/16 10:34:40;;;;;;;;;;;;;;;11.56;80.39;96931.91;108093;1287;26437;-87
2024/02/16 10:37:07;;;;;;;;;;;;;;;11.62;79.54;96928.54;108041;1287;22545;-87
2024/02/16 10:39:33;;;;;;;;;;;;;;;11.72;79.87;96927.81;108066;1284;25198;-87
2024/02/16 10:42:00;;;;;;;;;;;;;;;11.81;79.21;96927.79;108096;1287;22547;-87
2024/02/16 10:44:27;;;;;;;;;;;;;;;11.88;79.11;96924.55;108172;1287;22500;-87
2024/02/16 10:46:56;;;;;;;;;;;;;;;11.95;78.96;96923.05;108015;1285;22526;-87
2024/02/16 10:49:23;;;;;;;;;;;;;;;12.02;79.39;96923.99;108143;1287;22524;-87
2024/02/16 10:51:52;;;;;;;;;;;;;;;12.08;77.81;96922.48;108051;1288;22558;-87
2024/02/16 10:54:19;;;;;;;;;;;;;;;12.12;78.02;96921.81;108072;1283;22588;-87
2024/02/16 10:56:46;;;;;;;;;;;;;;;12.14;78.30;96916.52;108048;1281;24212;-87
2024/02/16 10:59:12;;;;;;;;;;;;;;;12.18;78.32;96914.17;108130;1284;24211;-87
2024/02/16 11:01:39;;;;;;;;;;;;;;;12.24;76.95;96917.98;108066;1288;22539;-87
2024/02/16 11:04:09;;;;;;;;;;;;;;;12.29;76.84;96912.33;108053;1287;22536;-88
2024/02/16 11:06:46;;;;;;;;;;;;;;;12.33;77.37;96908.60;109433;1286;23177;-85
2024/02/16 11:09:25;;;;;;;;;;;;;;;12.36;76.90;96910.45;109461;1287;22560;-85
2024/02/16 11:11:52;;;;;;;;;;;;;;;12.42;76.78;96911.21;108035;1287;22560;-85
2024/02/16 11:14:19;;;;;;;;;;;;;;;12.48;76.58;96911.17;109254;1287;26453;-85
2024/02/16 11:16:45;;;;;;;;;;;;;;;12.52;76.22;96909.27;108090;1287;22502;-85
2024/02/16 11:19:13;;;;;;;;;;;;;;;12.53;76.12;96907.09;108067;1288;22552;-85
2024/02/16 11:21:40;;;;;;;;;;;;;;;12.53;76.35;96903.36;108062;1287;23190;-85
2024/02/16 11:24:08;;;;;;;;;;;;;;;12.56;76.34;96903.75;108169;1286;24233;-84
2024/02/16 11:26:44;;;;;;;;;;;;;;;12.62;76.15;96901.45;107974;1287;22591;-85
2024/02/16 11:29:10;;;;;;;;;;;;;;;12.61;75.72;96902.29;108005;1289;26590;-85
2024/02/16 11:31:37;;;;;;;;;;;;;;;12.64;74.50;96903.48;108061;1287;22523;-85
2024/02/16 11:34:03;;;;;;;;;;;;;;;12.71;74.22;96899.64;108001;1283;22554;-85
2024/02/16 11:36:30;;;;;;;;;;;;;;;12.76;74.21;96903.71;108108;1287;22546;-85
2024/02/16 11:38:56;;;;;;;;;;;;;;;12.81;74.43;96896.42;108169;1287;25396;-85
2024/02/16 11:41:23;;;;;;;;;;;;;;;12.86;74.14;96897.09;108073;1287;22534;-86
2024/02/16 11:43:49;;;;;;;;;;;;;;;12.90;74.00;96893.29;108186;1287;22577;-86
2024/02/16 11:46:17;;;;;;;;;;;;;;;12.95;73.17;96896.27;108078;1280;25215;-85
2024/02/16 11:48:47;;;;;;;;;;;;;;;12.95;73.02;96896.74;108132;1285;24424;-85
2024/02/16 11:51:14;;;;;;;;;;;;;;;12.97;72.90;96894.48;108156;1287;23755;-86
2024/02/16 11:53:41;;;;;;;;;;;;;;;13.03;72.79;96898.89;108043;1289;22510;-85
2024/02/16 11:56:07;;;;;;;;;;;;;;;13.05;72.23;96897.39;108050;1283;22515;-86
2024/02/16 11:58:34;;;;;;;;;;;;;;;13.08;72.66;96895.84;108078;1289;22535;-86
2024/02/16 12:01:00;;;;;;;;;;;;;;;13.11;73.12;96895.76;108197;1287;22536;-85
2024/02/16 12:03:28;;;;;;;;;;;;;;;13.14;73.29;96895.10;108037;1288;25924;-86
2024/02/16 12:05:55;;;;;;;;;;;;;;;13.15;71.32;96895.76;108170;1286;22551;-86
2024/02/16 12:08:21;;;;;;;;;;;;;;;13.18;70.56;96899.84;108029;1284;22514;-86
2024/02/16 12:10:48;;;;;;;;;;;;;;;13.19;69.60;96896.61;108101;1287;22552;-86
2024/02/16 12:13:16;;;;;;;;;;;;;;;13.20;69.46;96900.60;108016;1280;22557;-85
2024/02/16 12:15:43;;;;;;;;;;;;;;;13.20;70.40;96898.94;108125;1287;22531;-85
2024/02/16 12:18:10;;;;;;;;;;;;;;;13.21;70.37;96900.20;108152;1287;22475;-86
2024/02/16 12:20:36;;;;;;;;;;;;;;;13.23;70.55;96896.20;108160;1284;22489;-86
2024/02/16 12:23:12;;;;;;;;;;;;;;;13.24;70.73;96894.44;108020;1283;22545;-86
2024/02/16 12:25:39;;;;;;;;;;;;;;;13.25;70.40;96891.76;108149;1287;25417;-86
2024/02/16 12:28:07;;;;;;;;;;;;;;;13.25;70.72;96891.95;108064;1283;22579;-86
2024/02/16 12:30:34;;;;;;;;;;;;;;;13.26;69.62;96896.14;107989;1288;22522;-85
2024/02/16 12:33:01;;;;;;;;;;;;;;;13.26;69.50;96893.70;108020;1283;25581;-86
2024/02/16 12:35:27;;;;;;;;;;;;;;;13.28;68.45;96894.44;107948;1288;22540;-86
2024/02/16 12:37:53;;;;;;;;;;;;;;;13.29;69.06;96887.70;108076;1284;22801;-86
2024/02/16 12:40:20;;;;;;;;;;;;;;;13.31;69.17;96886.11;107996;1283;22583;-86
2024/02/16 12:42:47;;;;;;;;;;;;;;;13.34;69.28;96886.10;108177;1287;25230;-86